Terminal Aerodrome Forecast
Issued by NWS

Home | Current Version | Previous Version | Graphics & Text | Print | Product List | Glossary On
Versions: 1 2 3 4 5 6 7 8 9 10 11 12 13 14 15 16 17
754
FTUS43 KDLH 010533
TAFHIB
TAF
KHIB 010533Z 0106/0206 08005KT P6SM SKC
     FM011500 06010KT P6SM FEW050
     FM012000 VRB04KT P6SM FEW060=

USA.gov is the U.S. government's official web portal to all federal, state and local government web resources and services.